createdAt,value
2022-08-23T00:00:13.509Z,100.00
2022-08-23T00:02:43.563Z,100.00
2022-08-23T00:05:13.216Z,100.00
2022-08-23T00:07:44.263Z,100.00
2022-08-23T00:10:17.208Z,100.00
2022-08-23T00:12:46.728Z,100.00
2022-08-23T00:15:17.863Z,100.00
2022-08-23T00:17:46.396Z,100.00
2022-08-23T00:20:20.709Z,100.00
2022-08-23T00:22:49.264Z,100.00
2022-08-23T00:25:19.061Z,100.00
2022-08-23T00:27:47.427Z,100.00
2022-08-23T00:30:17.683Z,100.00
2022-08-23T00:32:46.812Z,100.00
2022-08-23T00:35:20.874Z,100.00
2022-08-23T00:38:32.960Z,100.00
2022-08-23T00:40:50.984Z,100.00
2022-08-23T00:43:41.341Z,100.00
2022-08-23T00:46:37.846Z,100.00
2022-08-23T00:49:10.378Z,100.00
2022-08-23T00:51:52.114Z,100.00
2022-08-23T00:54:23.194Z,100.00
2022-08-23T00:56:53.484Z,100.00
2022-08-23T00:59:21.988Z,100.00
2022-08-23T01:01:50.873Z,100.00
2022-08-23T01:04:19.907Z,100.00
2022-08-23T01:06:55.146Z,100.00
2022-08-23T01:09:23.924Z,100.00
2022-08-23T01:11:57.610Z,100.00
2022-08-23T01:14:31.442Z,100.00
2022-08-23T01:17:05.537Z,100.00
2022-08-23T01:19:37.542Z,100.00
2022-08-23T01:22:13.467Z,100.00
2022-08-23T01:25:07.721Z,100.00
2022-08-23T01:27:35.593Z,100.00
2022-08-23T01:30:06.161Z,100.00
2022-08-23T01:32:40.554Z,100.00
2022-08-23T01:35:09.767Z,100.00
2022-08-23T01:37:38.849Z,100.00
2022-08-23T01:40:10.082Z,100.00
2022-08-23T01:42:41.546Z,100.00
2022-08-23T01:45:13.250Z,100.00
2022-08-23T01:47:42.100Z,100.00
2022-08-23T01:50:13.057Z,100.00
2022-08-23T01:52:47.293Z,100.00
2022-08-23T01:55:19.423Z,100.00
2022-08-23T01:57:51.650Z,100.00
2022-08-23T02:00:22.519Z,100.00
2022-08-23T02:02:51.226Z,100.00
2022-08-23T02:05:20.462Z,100.00
2022-08-23T02:07:49.449Z,100.00
2022-08-23T02:10:21.176Z,100.00
2022-08-23T02:12:51.354Z,100.00
2022-08-23T02:15:22.016Z,100.00
2022-08-23T02:17:50.472Z,100.00
2022-08-23T02:20:19.346Z,100.00
2022-08-23T02:22:47.752Z,100.00
2022-08-23T02:25:16.089Z,100.00
2022-08-23T02:27:45.770Z,100.00
2022-08-23T02:30:15.272Z,100.00
2022-08-23T02:32:44.332Z,100.00
2022-08-23T02:35:13.890Z,100.00
2022-08-23T02:37:42.273Z,100.00
2022-08-23T02:40:11.996Z,100.00
2022-08-23T02:42:40.442Z,100.00
2022-08-23T02:45:11.360Z,100.00
2022-08-23T02:47:46.768Z,100.00
2022-08-23T02:50:27.513Z,100.00
2022-08-23T02:52:56.031Z,100.00
2022-08-23T02:55:24.695Z,100.00
2022-08-23T02:57:53.534Z,100.00
2022-08-23T03:00:23.936Z,100.00
2022-08-23T03:02:52.292Z,100.00
2022-08-23T03:05:21.321Z,100.00
2022-08-23T03:07:49.763Z,100.00
2022-08-23T03:10:18.177Z,100.00
2022-08-23T03:12:55.467Z,100.00
2022-08-23T03:15:25.219Z,100.00
2022-08-23T03:17:53.700Z,100.00
2022-08-23T03:20:22.430Z,100.00
2022-08-23T03:22:54.562Z,100.00
2022-08-23T03:25:24.728Z,100.00
2022-08-23T03:28:05.523Z,100.00
2022-08-23T03:30:37.322Z,100.00
2022-08-23T03:33:07.102Z,100.00
2022-08-23T03:35:35.743Z,100.00
2022-08-23T03:38:06.035Z,100.00
2022-08-23T03:40:36.435Z,100.00
2022-08-23T03:43:05.055Z,100.00
2022-08-23T03:45:35.862Z,100.00
2022-08-23T03:48:04.810Z,100.00
2022-08-23T03:50:36.058Z,100.00
2022-08-23T03:53:05.002Z,100.00
2022-08-23T03:55:33.535Z,100.00
2022-08-23T03:58:11.158Z,100.00
2022-08-23T04:00:41.042Z,100.00
2022-08-23T04:03:09.892Z,100.00
2022-08-23T04:05:54.821Z,100.00
2022-08-23T04:08:29.718Z,100.00
2022-08-23T04:11:02.632Z,100.00
2022-08-23T04:13:31.571Z,100.00
2022-08-23T04:16:05.053Z,100.00
2022-08-23T04:18:34.886Z,100.00
2022-08-23T04:21:07.286Z,100.00
2022-08-23T04:23:35.802Z,100.00
2022-08-23T04:26:06.174Z,100.00
2022-08-23T04:28:38.875Z,100.00
2022-08-23T04:31:09.067Z,100.00
2022-08-23T04:33:40.320Z,100.00
2022-08-23T04:36:10.699Z,100.00
2022-08-23T04:38:39.202Z,100.00
2022-08-23T04:41:26.517Z,100.00
2022-08-23T04:43:57.282Z,100.00
2022-08-23T04:46:28.484Z,100.00
2022-08-23T04:48:59.633Z,100.00
2022-08-23T04:51:29.292Z,100.00
2022-08-23T04:53:57.876Z,100.00
2022-08-23T04:56:38.742Z,100.00
2022-08-23T04:59:08.537Z,100.00
2022-08-23T05:01:44.070Z,100.00
2022-08-23T05:04:12.614Z,100.00
2022-08-23T05:06:42.073Z,100.00
2022-08-23T05:09:11.238Z,100.00
2022-08-23T05:11:39.722Z,100.00
2022-08-23T05:14:08.515Z,100.00
2022-08-23T05:16:37.432Z,100.00
2022-08-23T05:19:12.198Z,100.00
2022-08-23T05:21:45.412Z,100.00
2022-08-23T05:24:14.130Z,100.00
2022-08-23T05:26:44.473Z,100.00
2022-08-23T05:29:13.181Z,100.00
2022-08-23T05:31:46.883Z,100.00
2022-08-23T05:34:22.432Z,100.00
2022-08-23T05:36:55.738Z,100.00
2022-08-23T05:39:35.959Z,100.00
2022-08-23T05:42:07.188Z,100.00
2022-08-23T05:44:36.690Z,100.00
2022-08-23T05:47:11.135Z,100.00
2022-08-23T05:49:47.366Z,100.00
2022-08-23T05:52:16.126Z,100.00
2022-08-23T05:54:45.578Z,100.00
2022-08-23T05:57:35.459Z,100.00
2022-08-23T06:00:05.550Z,100.00
2022-08-23T06:02:34.097Z,100.00
2022-08-23T06:05:04.245Z,100.00
2022-08-23T06:07:34.589Z,100.00
2022-08-23T06:10:03.149Z,100.00
2022-08-23T06:12:33.625Z,100.00
2022-08-23T06:15:03.314Z,100.00
2022-08-23T06:17:31.926Z,100.00
2022-08-23T06:20:01.092Z,100.00
2022-08-23T06:22:39.509Z,100.00
2022-08-23T06:25:09.789Z,100.00
2022-08-23T06:27:53.981Z,100.00
2022-08-23T06:30:22.474Z,100.00
2022-08-23T06:33:02.799Z,100.00
2022-08-23T06:35:38.794Z,100.00
2022-08-23T06:38:14.915Z,100.00
2022-08-23T06:40:52.661Z,100.00
2022-08-23T06:43:26.850Z,100.00
2022-08-23T06:46:17.442Z,100.00
2022-08-23T06:48:47.179Z,100.00
2022-08-23T06:51:22.061Z,100.00
2022-08-23T06:54:13.316Z,100.00
2022-08-23T06:56:56.942Z,100.00
2022-08-23T06:59:34.917Z,100.00
2022-08-23T07:02:35.887Z,100.00
2022-08-23T07:05:45.054Z,100.00
2022-08-23T07:08:25.100Z,100.00
2022-08-23T07:10:56.808Z,100.00
2022-08-23T07:13:25.248Z,100.00
2022-08-23T07:15:59.074Z,100.00
2022-08-23T07:18:27.944Z,100.00
2022-08-23T07:20:58.561Z,100.00
2022-08-23T07:23:27.487Z,100.00
2022-08-23T07:25:58.932Z,100.00
2022-08-23T07:28:31.781Z,100.00
2022-08-23T07:31:11.402Z,100.00
2022-08-23T07:33:44.602Z,100.00
2022-08-23T07:36:19.582Z,100.00
2022-08-23T07:38:49.195Z,100.00
2022-08-23T07:41:21.927Z,100.00
2022-08-23T07:43:50.902Z,100.00
2022-08-23T07:46:20.997Z,100.00
2022-08-23T07:48:54.602Z,100.00
2022-08-23T07:51:32.263Z,100.00
2022-08-23T07:54:02.537Z,100.00
2022-08-23T07:56:32.332Z,100.00
2022-08-23T07:59:11.387Z,100.00
2022-08-23T08:01:53.554Z,100.00
2022-08-23T08:04:23.633Z,100.00
2022-08-23T08:07:10.840Z,100.00
2022-08-23T08:09:45.138Z,100.00
2022-08-23T08:12:15.069Z,100.00
2022-08-23T08:14:44.603Z,100.00
2022-08-23T08:17:15.561Z,100.00
2022-08-23T08:20:02.161Z,100.00
2022-08-23T08:22:53.755Z,100.00
2022-08-23T08:25:36.829Z,100.00
2022-08-23T08:28:15.579Z,100.00
2022-08-23T08:30:44.589Z,100.00
2022-08-23T08:33:13.310Z,100.00
2022-08-23T08:35:41.760Z,100.00
2022-08-23T08:38:10.348Z,100.00
2022-08-23T08:40:41.396Z,100.00
2022-08-23T08:43:29.463Z,100.00
2022-08-23T08:46:06.258Z,100.00
2022-08-23T08:48:43.003Z,100.00
2022-08-23T08:51:25.662Z,100.00
2022-08-23T08:53:55.687Z,100.00
2022-08-23T08:56:35.201Z,100.00
2022-08-23T08:59:31.974Z,100.00
2022-08-23T09:02:00.566Z,100.00
2022-08-23T09:04:37.261Z,100.00
2022-08-23T09:07:15.952Z,100.00
2022-08-23T09:10:07.076Z,100.00
2022-08-23T09:12:50.359Z,100.00
2022-08-23T09:15:30.849Z,100.00
2022-08-23T09:18:04.863Z,100.00
2022-08-23T09:20:35.343Z,100.00
2022-08-23T09:23:09.712Z,100.00
2022-08-23T09:25:40.290Z,100.00
2022-08-23T09:28:16.874Z,100.00
2022-08-23T09:30:54.727Z,100.00
2022-08-23T09:33:27.239Z,100.00
2022-08-23T09:36:08.433Z,100.00
2022-08-23T09:38:41.677Z,100.00
2022-08-23T09:41:19.312Z,100.00
2022-08-23T09:43:52.345Z,100.00
2022-08-23T09:46:28.766Z,100.00
2022-08-23T09:48:58.868Z,100.00
2022-08-23T09:51:35.986Z,100.00
2022-08-23T09:54:18.615Z,100.00
2022-08-23T09:56:53.674Z,100.00
2022-08-23T09:59:34.092Z,100.00
2022-08-23T10:02:17.407Z,100.00
2022-08-23T10:04:58.864Z,100.00
2022-08-23T10:07:36.322Z,100.00
2022-08-23T10:10:24.636Z,100.00
2022-08-23T10:12:56.560Z,100.00
2022-08-23T10:15:37.871Z,100.00
2022-08-23T10:18:15.870Z,100.00
2022-08-23T10:20:54.494Z,100.00
2022-08-23T10:23:38.110Z,100.00
2022-08-23T10:26:11.864Z,100.00
2022-08-23T10:29:05.731Z,100.00
2022-08-23T10:31:43.507Z,100.00
2022-08-23T10:34:39.638Z,100.00
2022-08-23T10:37:23.525Z,100.00
2022-08-23T10:40:03.948Z,100.00
2022-08-23T10:42:43.725Z,100.00
2022-08-23T10:45:20.051Z,100.00
2022-08-23T10:48:02.258Z,100.00
2022-08-23T10:50:43.579Z,100.00
2022-08-23T10:53:16.390Z,100.00
2022-08-23T10:56:03.003Z,100.00
2022-08-23T10:58:41.437Z,100.00
2022-08-23T11:01:14.180Z,100.00
2022-08-23T11:03:45.895Z,100.00
2022-08-23T11:06:46.560Z,100.00
2022-08-23T11:09:53.457Z,100.00
2022-08-23T11:12:29.064Z,100.00
2022-08-23T11:15:05.927Z,100.00
2022-08-23T11:17:42.282Z,100.00
2022-08-23T11:20:13.205Z,100.00
2022-08-23T11:23:15.610Z,100.00
2022-08-23T11:25:46.304Z,100.00
2022-08-23T11:28:41.903Z,100.00
2022-08-23T11:31:25.488Z,100.00
2022-08-23T11:34:02.181Z,100.00
2022-08-23T11:36:33.544Z,100.00
2022-08-23T11:39:13.193Z,100.00
2022-08-23T11:42:05.349Z,100.00
2022-08-23T11:44:42.031Z,100.00
2022-08-23T11:47:13.741Z,100.00
2022-08-23T11:49:57.918Z,100.00
2022-08-23T11:52:57.103Z,100.00
2022-08-23T11:55:52.471Z,100.00
2022-08-23T11:58:24.602Z,100.00
2022-08-23T12:01:08.417Z,100.00
2022-08-23T12:03:53.788Z,100.00
2022-08-23T12:06:51.230Z,100.00
2022-08-23T12:09:51.620Z,100.00
2022-08-23T12:12:40.049Z,100.00
2022-08-23T12:15:13.159Z,100.00
2022-08-23T12:18:11.941Z,100.00
2022-08-23T12:20:42.400Z,100.00
2022-08-23T12:23:21.783Z,100.00
2022-08-23T12:26:08.724Z,100.00
2022-08-23T12:28:44.796Z,100.00
2022-08-23T12:31:33.244Z,100.00
2022-08-23T12:34:21.997Z,100.00
2022-08-23T12:37:05.440Z,100.00
2022-08-23T12:39:40.664Z,97.91
2022-08-23T12:42:15.658Z,100.00
2022-08-23T12:44:47.489Z,96.84
2022-08-23T12:47:18.318Z,94.15
2022-08-23T12:49:57.119Z,81.98
2022-08-23T12:52:28.523Z,90.61
2022-08-23T12:54:58.046Z,93.83
2022-08-23T12:57:35.616Z,96.88
2022-08-23T13:00:18.963Z,97.33
2022-08-23T13:02:53.416Z,96.91
2022-08-23T13:05:31.442Z,90.70
2022-08-23T13:08:01.129Z,93.18
2022-08-23T13:10:29.793Z,93.11
2022-08-23T13:12:58.734Z,93.39
2022-08-23T13:15:51.569Z,94.77
2022-08-23T13:18:33.399Z,95.26
2022-08-23T13:21:19.371Z,96.56
2022-08-23T13:23:48.197Z,92.93
2022-08-23T13:26:36.785Z,85.44
2022-08-23T13:29:13.868Z,85.26
2022-08-23T13:32:03.413Z,92.69
2022-08-23T13:34:47.160Z,92.56
2022-08-23T13:37:22.602Z,88.83
2022-08-23T13:39:55.596Z,86.01
2022-08-23T13:42:35.520Z,79.49
2022-08-23T13:45:15.584Z,80.39
2022-08-23T13:47:51.315Z,77.60
2022-08-23T13:50:24.838Z,80.72
2022-08-23T13:55:45.071Z,81.48
2022-08-23T13:58:15.494Z,83.76
2022-08-23T14:00:45.878Z,85.73
2022-08-23T14:03:27.409Z,86.16
2022-08-23T14:05:56.099Z,85.67
2022-08-23T14:08:24.599Z,85.17
2022-08-23T14:10:53.829Z,85.15
2022-08-23T14:13:28.708Z,85.48
2022-08-23T14:21:40.118Z,71.91
2022-08-23T14:24:08.651Z,69.61
2022-08-23T14:26:37.130Z,73.08
2022-08-23T14:29:05.791Z,74.80
2022-08-23T14:31:36.144Z,69.15
2022-08-23T14:34:06.239Z,70.72
2022-08-23T14:36:34.630Z,72.97
2022-08-23T14:39:03.045Z,74.52
2022-08-23T14:41:32.052Z,74.03
2022-08-23T14:44:00.736Z,70.67
2022-08-23T14:46:29.188Z,69.96
2022-08-23T14:48:57.649Z,69.60
2022-08-23T14:51:32.175Z,72.91
2022-08-23T14:54:03.740Z,74.55
2022-08-23T14:56:32.468Z,76.57
2022-08-23T14:59:01.121Z,76.06
2022-08-23T15:01:29.760Z,76.27
2022-08-23T15:03:58.219Z,76.23
2022-08-23T15:06:28.344Z,74.62
2022-08-23T15:08:56.970Z,75.29
2022-08-23T15:14:13.815Z,72.33
2022-08-23T15:16:42.335Z,72.62
2022-08-23T15:19:10.934Z,73.24
2022-08-23T15:21:40.680Z,71.83
2022-08-23T15:24:09.164Z,73.39
2022-08-23T15:26:37.672Z,74.38
2022-08-23T15:29:06.260Z,76.00
2022-08-23T15:31:34.659Z,75.68
2022-08-23T15:34:03.025Z,68.05
2022-08-23T15:36:43.405Z,72.12
2022-08-23T15:39:11.756Z,67.96
2022-08-23T15:41:41.358Z,70.56
2022-08-23T15:44:09.802Z,71.12
2022-08-23T15:46:38.646Z,67.58
2022-08-23T15:49:13.863Z,71.37
2022-08-23T15:51:44.706Z,67.17
2022-08-23T15:54:13.224Z,67.60
2022-08-23T15:56:45.585Z,69.09
2022-08-23T15:59:15.656Z,68.62
2022-08-23T16:01:44.501Z,65.68
2022-08-23T16:04:13.201Z,68.68
2022-08-23T16:06:45.091Z,67.33
2022-08-23T16:09:20.171Z,66.29
2022-08-23T16:11:49.218Z,66.70
2022-08-23T16:14:17.746Z,65.28
2022-08-23T16:16:46.925Z,63.83
2022-08-23T16:19:16.798Z,65.34
2022-08-23T16:21:46.710Z,65.14
2022-08-23T16:24:15.166Z,65.31
2022-08-23T16:26:46.133Z,66.31
2022-08-23T16:29:17.152Z,61.89
2022-08-23T16:31:46.449Z,61.82
2022-08-23T16:34:16.891Z,64.37
2022-08-23T16:36:57.442Z,61.72
2022-08-23T16:39:26.981Z,62.54
2022-08-23T16:41:55.709Z,61.42
2022-08-23T16:44:24.053Z,61.58
2022-08-23T16:46:52.607Z,61.10
2022-08-23T16:49:21.060Z,61.02
2022-08-23T16:51:52.561Z,61.82
2022-08-23T16:54:21.547Z,60.64
2022-08-23T16:56:49.995Z,60.89
2022-08-23T16:59:19.158Z,61.67
2022-08-23T17:01:50.582Z,57.34
2022-08-23T17:04:20.674Z,59.55
2022-08-23T17:06:50.627Z,59.78
2022-08-23T17:09:18.974Z,59.15
2022-08-23T17:11:48.065Z,59.75
2022-08-23T17:14:16.635Z,60.84
2022-08-23T17:16:45.090Z,61.75
2022-08-23T17:19:14.505Z,60.48
2022-08-23T17:21:45.047Z,61.03
2022-08-23T17:24:14.808Z,59.58
2022-08-23T17:26:43.686Z,61.12
2022-08-23T17:29:12.459Z,60.12
2022-08-23T17:31:41.631Z,58.88
2022-08-23T17:34:10.242Z,60.90
2022-08-23T17:36:47.599Z,61.32
2022-08-23T17:39:20.911Z,62.22
2022-08-23T17:41:49.401Z,63.07
2022-08-23T17:44:18.359Z,63.42
2022-08-23T17:46:47.714Z,63.59
2022-08-23T17:49:18.199Z,63.73
2022-08-23T17:51:46.859Z,63.96
2022-08-23T17:54:15.875Z,64.24
2022-08-23T17:56:50.321Z,64.85
2022-08-23T17:59:19.986Z,65.10
2022-08-23T18:01:48.484Z,64.96
2022-08-23T18:04:16.953Z,65.63
2022-08-23T18:06:46.166Z,66.30
2022-08-23T18:09:14.742Z,66.79
2022-08-23T18:11:43.220Z,66.68
2022-08-23T18:14:13.116Z,67.29
2022-08-23T18:16:44.046Z,68.22
2022-08-23T18:19:14.289Z,68.63
2022-08-23T18:21:44.216Z,69.34
2022-08-23T18:24:12.602Z,69.88
2022-08-23T18:26:58.830Z,70.43
2022-08-23T18:29:28.864Z,70.83
2022-08-23T18:31:57.345Z,70.82
2022-08-23T18:34:25.774Z,71.04
2022-08-23T18:36:54.643Z,71.09
2022-08-23T18:39:31.140Z,71.58
2022-08-23T18:42:01.030Z,71.72
2022-08-23T18:44:31.285Z,72.66
2022-08-23T18:47:03.161Z,72.90
2022-08-23T18:49:33.514Z,73.51
2022-08-23T18:52:02.763Z,73.88
2022-08-23T18:54:33.863Z,74.08
2022-08-23T18:57:03.510Z,75.33
2022-08-23T18:59:33.649Z,76.30
2022-08-23T19:02:02.238Z,77.45
2022-08-23T19:04:31.262Z,78.06
2022-08-23T19:06:59.677Z,78.82
2022-08-23T19:09:28.087Z,80.05
2022-08-23T19:11:56.565Z,80.45
2022-08-23T19:14:24.922Z,81.83
2022-08-23T19:16:55.744Z,82.95
2022-08-23T19:19:24.547Z,83.45
2022-08-23T19:21:52.894Z,83.94
2022-08-23T19:24:21.303Z,84.86
2022-08-23T19:26:49.702Z,85.83
2022-08-23T19:29:20.538Z,86.22
2022-08-23T19:31:50.251Z,87.33
2022-08-23T19:34:22.182Z,87.75
2022-08-23T19:37:00.265Z,88.48
2022-08-23T19:39:29.990Z,88.76
2022-08-23T19:41:58.423Z,88.79
2022-08-23T19:44:28.122Z,89.41
2022-08-23T19:46:56.774Z,90.25
2022-08-23T19:49:26.564Z,90.23
2022-08-23T19:51:55.038Z,90.44
2022-08-23T19:54:23.503Z,90.40
2022-08-23T19:56:57.510Z,91.11
2022-08-23T19:59:28.279Z,92.02
2022-08-23T20:01:57.918Z,92.25
2022-08-23T20:04:29.658Z,92.33
2022-08-23T20:06:59.135Z,92.31
2022-08-23T20:09:30.067Z,91.90
2022-08-23T20:11:59.522Z,92.80
2022-08-23T20:14:33.892Z,93.50
2022-08-23T20:17:04.367Z,92.83
2022-08-23T20:19:35.119Z,92.97
2022-08-23T20:22:17.624Z,92.81
2022-08-23T20:24:52.441Z,93.56
2022-08-23T20:27:24.204Z,93.49
2022-08-23T20:30:01.265Z,94.08
2022-08-23T20:32:31.217Z,94.43
2022-08-23T20:35:01.099Z,94.58
2022-08-23T20:37:30.472Z,94.66
2022-08-23T20:39:59.229Z,95.59
2022-08-23T20:42:27.793Z,95.69
2022-08-23T20:44:56.243Z,95.88
2022-08-23T20:47:24.719Z,96.28
2022-08-23T20:49:53.138Z,96.63
2022-08-23T20:52:22.869Z,96.79
2022-08-23T20:54:52.116Z,97.05
2022-08-23T20:57:20.714Z,97.43
2022-08-23T20:59:49.094Z,97.54
2022-08-23T21:02:17.534Z,97.96
2022-08-23T21:04:45.999Z,98.21
2022-08-23T21:07:16.222Z,98.86
2022-08-23T21:09:46.384Z,99.44
2022-08-23T21:12:14.718Z,99.35
2022-08-23T21:14:43.130Z,100.00
2022-08-23T21:17:11.522Z,100.00
2022-08-23T21:19:39.991Z,100.00
2022-08-23T21:22:08.387Z,100.00
2022-08-23T21:24:38.066Z,100.00
2022-08-23T21:27:09.546Z,100.00
2022-08-23T21:29:38.605Z,100.00
2022-08-23T21:32:07.546Z,100.00
2022-08-23T21:34:35.998Z,100.00
2022-08-23T21:37:04.460Z,100.00
2022-08-23T21:39:32.982Z,100.00
2022-08-23T21:42:01.381Z,100.00
2022-08-23T21:44:31.163Z,100.00
2022-08-23T21:46:59.556Z,100.00
2022-08-23T21:49:27.932Z,100.00
2022-08-23T21:51:56.398Z,100.00
2022-08-23T21:54:24.765Z,100.00
2022-08-23T21:56:53.126Z,100.00
2022-08-23T21:59:21.491Z,100.00
2022-08-23T22:01:51.762Z,100.00
2022-08-23T22:04:20.176Z,100.00
2022-08-23T22:06:48.732Z,100.00
2022-08-23T22:09:20.634Z,100.00
2022-08-23T22:11:55.820Z,100.00
2022-08-23T22:14:31.617Z,100.00
2022-08-23T22:17:01.590Z,100.00
2022-08-23T22:19:30.116Z,100.00
2022-08-23T22:21:59.229Z,100.00
2022-08-23T22:24:27.724Z,100.00
2022-08-23T22:26:56.805Z,100.00
2022-08-23T22:29:25.442Z,100.00
2022-08-23T22:31:53.787Z,100.00
2022-08-23T22:34:23.483Z,100.00
2022-08-23T22:36:52.290Z,100.00
2022-08-23T22:39:21.907Z,100.00
2022-08-23T22:41:50.615Z,100.00
2022-08-23T22:44:19.483Z,100.00
2022-08-23T22:46:48.260Z,100.00
2022-08-23T22:49:17.500Z,100.00
2022-08-23T22:51:49.184Z,100.00
2022-08-23T22:54:24.619Z,100.00
2022-08-23T22:56:54.002Z,100.00
2022-08-23T22:59:27.515Z,100.00
2022-08-23T23:02:03.310Z,100.00
2022-08-23T23:04:32.795Z,100.00
2022-08-23T23:07:03.211Z,100.00
2022-08-23T23:09:32.117Z,100.00
2022-08-23T23:12:00.851Z,100.00
2022-08-23T23:14:29.658Z,100.00
2022-08-23T23:16:58.947Z,100.00
2022-08-23T23:19:45.713Z,100.00
2022-08-23T23:22:15.769Z,100.00
2022-08-23T23:24:44.121Z,100.00
2022-08-23T23:27:12.833Z,100.00
2022-08-23T23:29:42.093Z,100.00
2022-08-23T23:32:10.889Z,100.00
2022-08-23T23:34:40.069Z,100.00
2022-08-23T23:37:08.799Z,100.00
2022-08-23T23:39:38.506Z,100.00
2022-08-23T23:42:07.227Z,100.00
2022-08-23T23:44:35.585Z,100.00
2022-08-23T23:47:04.172Z,100.00
2022-08-23T23:49:33.615Z,100.00
2022-08-23T23:52:04.790Z,100.00
2022-08-23T23:54:35.579Z,100.00
2022-08-23T23:57:07.867Z,100.00
2022-08-23T23:59:36.858Z,100.00
